createdAt,value
2018-03-23T00:01:21.158Z,50.00
2018-03-23T00:03:49.553Z,75.63
2018-03-23T00:06:18.044Z,59.17
2018-03-23T00:08:46.719Z,78.47
2018-03-23T00:11:15.751Z,68.97
2018-03-23T00:13:44.017Z,88.63
2018-03-23T00:16:13.057Z,74.73
2018-03-23T00:18:41.322Z,94.37
2018-03-23T00:21:09.584Z,73.93
2018-03-23T00:23:37.855Z,83.93
2018-03-23T00:26:06.127Z,75.33
2018-03-23T00:28:34.414Z,91.30
2018-03-23T00:31:02.716Z,84.37
2018-03-23T00:33:30.970Z,70.33
2018-03-23T00:35:59.246Z,97.67
2018-03-23T00:38:27.512Z,89.90
2018-03-23T00:40:55.789Z,87.57
2018-03-23T00:43:24.069Z,106.83
2018-03-23T00:45:52.345Z,80.47
2018-03-23T00:48:20.627Z,89.53
2018-03-23T00:50:48.892Z,88.90
2018-03-23T00:53:17.163Z,97.07
2018-03-23T00:55:45.451Z,111.37
2018-03-23T00:58:13.719Z,89.73
2018-03-23T01:00:42.019Z,103.50
2018-03-23T01:03:10.291Z,96.33
2018-03-23T01:05:38.585Z,101.10
2018-03-23T01:08:07.610Z,109.23
2018-03-23T01:10:35.893Z,107.20
2018-03-23T01:13:05.056Z,95.20
2018-03-23T01:15:33.342Z,97.33
2018-03-23T01:18:01.624Z,99.10
2018-03-23T01:20:29.889Z,92.37
2018-03-23T01:22:58.165Z,94.43
2018-03-23T01:25:26.424Z,90.03
2018-03-23T01:27:54.695Z,92.43
2018-03-23T01:30:23.097Z,92.40
2018-03-23T01:32:51.371Z,102.03
2018-03-23T01:35:19.626Z,98.67
2018-03-23T01:37:47.890Z,98.30
2018-03-23T01:40:16.142Z,103.93
2018-03-23T01:42:44.415Z,90.90
2018-03-23T01:45:13.443Z,104.70
2018-03-23T01:47:41.749Z,99.87
2018-03-23T01:50:09.993Z,92.30
2018-03-23T01:52:38.261Z,107.60
2018-03-23T01:55:06.543Z,100.93
2018-03-23T01:57:34.817Z,115.37
2018-03-23T02:00:03.112Z,85.50
2018-03-23T02:02:31.403Z,103.83
2018-03-23T02:04:59.673Z,38.77
2018-03-23T02:07:27.928Z,89.23
2018-03-23T02:09:56.227Z,111.40
2018-03-23T02:12:25.275Z,100.33
2018-03-23T02:14:53.570Z,122.50
2018-03-23T02:17:21.833Z,108.67
2018-03-23T02:19:50.099Z,108.03
2018-03-23T02:22:19.121Z,107.57
2018-03-23T02:24:47.437Z,120.90
2018-03-23T02:27:15.694Z,99.73
2018-03-23T02:29:43.973Z,111.37
2018-03-23T02:32:12.245Z,104.53
2018-03-23T02:34:40.514Z,108.53
2018-03-23T02:37:08.793Z,99.90
2018-03-23T02:39:37.061Z,99.60
2018-03-23T02:42:05.351Z,110.97
2018-03-23T02:44:33.628Z,107.43
2018-03-23T02:47:01.891Z,100.80
2018-03-23T02:49:30.164Z,96.40
2018-03-23T02:51:58.443Z,96.23
2018-03-23T02:54:26.697Z,85.70
2018-03-23T02:56:54.972Z,116.90
2018-03-23T02:59:23.242Z,89.23
2018-03-23T03:01:52.286Z,97.20
2018-03-23T03:04:20.541Z,102.97
2018-03-23T03:06:48.824Z,84.13
2018-03-23T03:09:17.092Z,88.30
2018-03-23T03:11:45.376Z,85.53
2018-03-23T03:14:13.651Z,89.57
2018-03-23T03:16:41.921Z,85.10
2018-03-23T03:19:10.178Z,78.33
2018-03-23T03:21:38.449Z,70.10
2018-03-23T03:24:06.713Z,88.43
2018-03-23T03:26:35.736Z,85.40
2018-03-23T03:29:04.010Z,66.67
2018-03-23T03:31:32.265Z,82.73
2018-03-23T03:34:01.297Z,96.90
2018-03-23T03:36:29.548Z,101.93
2018-03-23T03:38:57.859Z,90.37
2018-03-23T03:41:26.125Z,81.77
2018-03-23T03:43:54.417Z,93.40
2018-03-23T03:46:22.682Z,94.77
2018-03-23T03:48:50.942Z,104.67
2018-03-23T03:51:19.225Z,102.97
2018-03-23T03:53:47.507Z,102.53
2018-03-23T03:56:15.795Z,105.27
2018-03-23T03:58:44.049Z,108.43
2018-03-23T04:01:12.339Z,110.67
2018-03-23T04:03:40.615Z,102.27
2018-03-23T04:06:08.881Z,114.67
2018-03-23T04:08:37.158Z,115.10
2018-03-23T04:11:05.440Z,110.80
2018-03-23T04:13:33.707Z,88.43
2018-03-23T04:16:01.976Z,95.97
2018-03-23T04:18:30.280Z,105.47
2018-03-23T04:20:58.548Z,115.50
2018-03-23T04:23:26.830Z,95.57
2018-03-23T04:25:55.082Z,94.30
2018-03-23T04:28:23.346Z,97.80
2018-03-23T04:30:51.619Z,104.67
2018-03-23T04:33:19.888Z,101.43
2018-03-23T04:35:48.177Z,103.57
2018-03-23T04:38:16.445Z,81.67
2018-03-23T04:40:45.488Z,108.10
2018-03-23T04:43:13.757Z,112.77
2018-03-23T04:45:42.019Z,109.47
2018-03-23T04:48:10.287Z,104.53
2018-03-23T04:50:38.556Z,96.80
2018-03-23T04:53:06.859Z,81.97
2018-03-23T04:55:35.158Z,105.47
2018-03-23T04:58:03.413Z,107.40
2018-03-23T05:00:31.712Z,104.60
2018-03-23T05:03:01.530Z,115.67
2018-03-23T05:05:30.575Z,99.30
2018-03-23T05:07:58.866Z,103.47
2018-03-23T05:10:27.145Z,98.60
2018-03-23T05:12:55.401Z,99.93
2018-03-23T05:15:23.669Z,99.27
2018-03-23T05:17:51.944Z,90.23
2018-03-23T05:20:20.206Z,67.10
2018-03-23T05:22:49.268Z,91.77
2018-03-23T05:25:17.538Z,97.37
2018-03-23T05:27:45.815Z,106.80
2018-03-23T05:30:14.179Z,96.43
2018-03-23T05:32:42.432Z,116.03
2018-03-23T05:35:10.713Z,98.17
2018-03-23T05:37:38.975Z,103.57
2018-03-23T05:40:07.238Z,104.20
2018-03-23T05:42:35.516Z,105.47
2018-03-23T05:45:03.792Z,106.27
2018-03-23T05:47:32.056Z,110.70
2018-03-23T05:50:01.103Z,107.07
2018-03-23T05:52:29.360Z,95.20
2018-03-23T05:54:58.900Z,109.90
2018-03-23T05:57:27.168Z,109.80
2018-03-23T05:59:55.476Z,90.60
2018-03-23T06:02:23.740Z,125.43
2018-03-23T06:04:52.015Z,79.50
2018-03-23T06:07:21.818Z,103.37
2018-03-23T06:09:50.109Z,107.87
2018-03-23T06:12:18.381Z,105.50
2018-03-23T06:14:46.669Z,108.10
2018-03-23T06:17:14.947Z,101.80
2018-03-23T06:19:43.998Z,96.53
2018-03-23T06:22:12.278Z,94.87
2018-03-23T06:24:40.548Z,93.90
2018-03-23T06:27:08.863Z,114.33
2018-03-23T06:29:37.141Z,94.80
2018-03-23T06:32:05.493Z,99.53
2018-03-23T06:34:33.780Z,93.63
2018-03-23T06:37:02.284Z,98.67
2018-03-23T06:39:30.927Z,109.10
2018-03-23T06:41:59.203Z,95.80
2018-03-23T06:44:27.564Z,109.37
2018-03-23T06:46:55.842Z,98.20
2018-03-23T06:49:24.142Z,103.47
2018-03-23T06:51:52.428Z,69.40
2018-03-23T06:54:22.201Z,89.50
2018-03-23T06:56:50.468Z,99.67
2018-03-23T06:59:18.722Z,102.13
2018-03-23T07:01:47.829Z,45.97
2018-03-23T07:04:16.094Z,97.33
2018-03-23T07:06:45.125Z,84.40
2018-03-23T07:09:13.405Z,80.37
2018-03-23T07:11:41.677Z,91.30
2018-03-23T07:14:09.950Z,86.00
2018-03-23T07:16:38.249Z,74.87
2018-03-23T07:19:06.503Z,97.20
2018-03-23T07:21:34.803Z,85.17
2018-03-23T07:24:03.110Z,86.00
2018-03-23T07:26:31.385Z,89.80
2018-03-23T07:28:59.654Z,93.03
2018-03-23T07:31:27.946Z,78.57
2018-03-23T07:33:56.990Z,80.67
2018-03-23T07:36:25.283Z,70.70
2018-03-23T07:38:53.575Z,79.43
2018-03-23T07:41:21.855Z,60.80
2018-03-23T07:43:50.221Z,79.20
2018-03-23T07:46:18.486Z,74.70
2018-03-23T07:48:46.775Z,83.77
2018-03-23T07:51:15.408Z,61.23
2018-03-23T07:53:43.735Z,77.23
2018-03-23T07:56:11.991Z,61.33
2018-03-23T07:58:40.329Z,60.57
2018-03-23T08:01:09.411Z,62.27
2018-03-23T08:03:37.698Z,74.97
2018-03-23T08:06:06.764Z,61.63
2018-03-23T08:08:36.544Z,56.03
2018-03-23T08:11:04.841Z,63.90
2018-03-23T08:13:33.198Z,71.00
2018-03-23T08:16:01.464Z,61.77
2018-03-23T08:18:29.752Z,78.87
2018-03-23T08:20:58.032Z,52.63
2018-03-23T08:23:26.311Z,75.47
2018-03-23T08:25:54.573Z,55.33
2018-03-23T08:28:22.846Z,86.40
2018-03-23T08:30:51.145Z,58.00
2018-03-23T08:33:19.457Z,68.77
2018-03-23T08:35:48.494Z,78.87
2018-03-23T08:38:16.781Z,81.00
2018-03-23T08:40:45.164Z,81.97
2018-03-23T08:43:13.444Z,95.63
2018-03-23T08:45:41.732Z,87.90
2018-03-23T08:48:10.011Z,67.37
2018-03-23T08:50:38.380Z,53.97
2018-03-23T08:53:06.694Z,61.53
2018-03-23T08:55:36.843Z,56.70
2018-03-23T08:58:05.208Z,68.93
2018-03-23T09:00:33.491Z,48.27
2018-03-23T09:03:01.757Z,60.87
2018-03-23T09:05:30.050Z,58.03
2018-03-23T09:07:58.356Z,74.80
2018-03-23T09:10:27.424Z,63.97
2018-03-23T09:12:55.694Z,14.30
2018-03-23T09:15:24.026Z,61.57
2018-03-23T09:17:52.287Z,66.27
2018-03-23T09:20:20.556Z,58.80
2018-03-23T09:22:49.600Z,42.40
2018-03-23T09:25:18.661Z,54.07
2018-03-23T09:27:46.960Z,39.93
2018-03-23T09:30:15.236Z,57.23
2018-03-23T09:32:43.632Z,49.60
2018-03-23T09:35:12.823Z,57.00
2018-03-23T09:37:41.126Z,63.87
2018-03-23T09:40:09.445Z,31.43
2018-03-23T09:42:38.487Z,52.40
2018-03-23T09:45:06.763Z,44.17
2018-03-23T09:47:35.049Z,41.93
2018-03-23T09:50:03.456Z,52.33
2018-03-23T09:52:31.732Z,59.50
2018-03-23T09:55:00.007Z,45.70
2018-03-23T09:57:28.260Z,49.13
2018-03-23T09:59:57.995Z,40.30
2018-03-23T10:02:26.293Z,48.40
2018-03-23T10:04:54.556Z,59.27
2018-03-23T10:07:22.926Z,46.10
2018-03-23T10:09:51.456Z,54.80
2018-03-23T10:12:21.301Z,10.93
2018-03-23T10:14:49.653Z,22.07
2018-03-23T10:17:17.991Z,15.70
2018-03-23T10:19:46.270Z,39.63
2018-03-23T10:22:15.451Z,47.40
2018-03-23T10:24:43.726Z,47.70
2018-03-23T10:27:12.018Z,19.30
2018-03-23T10:29:40.292Z,40.67
2018-03-23T10:32:08.675Z,37.07
2018-03-23T10:34:37.008Z,46.83
2018-03-23T10:37:05.316Z,27.80
2018-03-23T10:39:33.584Z,36.17
2018-03-23T10:42:02.677Z,38.00
2018-03-23T10:44:30.941Z,39.17
2018-03-23T10:46:59.267Z,29.47
2018-03-23T10:49:28.329Z,13.03
2018-03-23T10:51:56.592Z,19.97
2018-03-23T10:54:24.859Z,32.53
2018-03-23T10:56:53.119Z,30.97
2018-03-23T10:59:21.423Z,24.00
2018-03-23T11:01:55.453Z,27.53
2018-03-23T11:04:23.719Z,30.70
2018-03-23T11:06:52.048Z,34.80
2018-03-23T11:09:21.088Z,25.07
2018-03-23T11:11:49.422Z,35.90
2018-03-23T11:14:17.715Z,34.30
2018-03-23T11:16:45.997Z,36.70
2018-03-23T11:19:14.301Z,30.37
2018-03-23T11:21:42.587Z,28.00
2018-03-23T11:24:10.953Z,29.43
2018-03-23T11:26:39.366Z,27.40
2018-03-23T11:29:07.735Z,36.07
2018-03-23T11:31:36.016Z,39.87
2018-03-23T11:34:04.330Z,28.87
2018-03-23T11:36:33.356Z,32.63
2018-03-23T11:39:01.656Z,41.40
2018-03-23T11:41:30.875Z,26.03
2018-03-23T11:43:59.147Z,40.80
2018-03-23T11:46:27.494Z,40.37
2018-03-23T11:48:55.861Z,31.33
2018-03-23T11:51:24.165Z,31.90
2018-03-23T11:53:52.438Z,37.83
2018-03-23T11:56:20.713Z,44.53
2018-03-23T11:58:49.022Z,38.40
2018-03-23T12:01:18.051Z,39.23
2018-03-23T12:03:46.442Z,41.33
2018-03-23T12:06:14.743Z,29.40
2018-03-23T12:08:43.068Z,42.57
2018-03-23T12:11:11.369Z,38.23
2018-03-23T12:13:39.649Z,24.63
2018-03-23T12:16:07.949Z,35.70
2018-03-23T12:18:36.258Z,32.70
2018-03-23T12:21:04.570Z,31.23
2018-03-23T12:23:32.858Z,38.07
2018-03-23T12:26:01.165Z,28.97
2018-03-23T12:28:29.445Z,34.37
2018-03-23T12:30:58.426Z,26.10
2018-03-23T12:33:26.729Z,35.97
2018-03-23T12:35:55.923Z,30.83
2018-03-23T12:38:24.953Z,33.83
2018-03-23T12:40:53.219Z,35.80
2018-03-23T12:43:22.347Z,35.20
2018-03-23T12:45:50.617Z,24.10
2018-03-23T12:48:18.877Z,37.03
2018-03-23T12:50:47.285Z,33.07
2018-03-23T12:53:15.571Z,37.33
2018-03-23T12:55:43.838Z,37.70
2018-03-23T12:58:12.211Z,31.47
2018-03-23T13:00:40.483Z,36.17
2018-03-23T13:03:08.783Z,29.30
2018-03-23T13:05:37.097Z,19.70
2018-03-23T13:08:05.449Z,33.87
2018-03-23T13:10:34.509Z,14.80
2018-03-23T13:13:02.782Z,34.70
2018-03-23T13:15:31.065Z,36.90
2018-03-23T13:17:59.366Z,33.17
2018-03-23T13:20:27.715Z,26.73
2018-03-23T13:22:56.092Z,38.73
2018-03-23T13:25:24.396Z,34.67
2018-03-23T13:27:53.451Z,32.13
2018-03-23T13:30:21.755Z,31.03
2018-03-23T13:32:50.024Z,31.63
2018-03-23T13:35:18.300Z,32.23
2018-03-23T13:37:46.724Z,31.07
2018-03-23T13:40:15.756Z,26.43
2018-03-23T13:42:45.027Z,41.07
2018-03-23T13:45:13.447Z,29.37
2018-03-23T13:47:41.754Z,23.20
2018-03-23T13:50:10.876Z,27.20
2018-03-23T13:52:40.019Z,24.50
2018-03-23T13:55:09.067Z,28.80
2018-03-23T14:00:18.581Z,32.00
2018-03-23T14:02:46.882Z,27.90
2018-03-23T14:05:15.955Z,34.07
2018-03-23T14:07:44.232Z,18.57
2018-03-23T14:10:12.564Z,27.50
2018-03-23T14:12:40.822Z,24.60
2018-03-23T14:15:09.109Z,34.23
2018-03-23T14:17:37.392Z,30.13
2018-03-23T14:20:05.653Z,36.47
2018-03-23T14:22:33.931Z,33.67
2018-03-23T14:25:02.958Z,43.83
2018-03-23T14:27:31.239Z,35.40
2018-03-23T14:29:59.580Z,37.87
2018-03-23T14:32:27.851Z,41.70
2018-03-23T14:34:56.930Z,38.63
2018-03-23T14:37:25.243Z,40.47
2018-03-23T14:39:53.503Z,29.00
2018-03-23T14:42:21.776Z,39.43
2018-03-23T14:44:50.826Z,48.17
2018-03-23T14:47:19.094Z,51.27
2018-03-23T14:49:47.371Z,47.13
2018-03-23T14:52:15.672Z,44.13
2018-03-23T14:54:43.976Z,48.33
2018-03-23T14:57:12.254Z,41.03
2018-03-23T14:59:41.292Z,49.53
2018-03-23T15:02:09.575Z,28.27
2018-03-23T15:04:37.835Z,33.63
2018-03-23T15:07:06.120Z,36.80
2018-03-23T15:09:34.379Z,33.27
2018-03-23T15:12:02.669Z,20.07
2018-03-23T15:14:30.916Z,29.97
2018-03-23T15:16:59.242Z,21.40
2018-03-23T15:19:27.477Z,39.00
2018-03-23T15:21:55.810Z,34.37
2018-03-23T15:24:24.071Z,34.43
2018-03-23T15:26:52.345Z,41.80
2018-03-23T15:29:20.665Z,47.13
2018-03-23T15:31:49.741Z,33.37
2018-03-23T15:34:18.774Z,49.73
2018-03-23T15:36:47.064Z,42.57
2018-03-23T15:39:15.338Z,39.57
2018-03-23T15:41:43.613Z,46.63
2018-03-23T15:44:11.907Z,51.60
2018-03-23T15:46:40.774Z,40.43
2018-03-23T15:49:09.070Z,44.60
2018-03-23T15:51:37.469Z,45.13
2018-03-23T15:54:05.743Z,41.63
2018-03-23T15:56:34.072Z,40.20
2018-03-23T15:59:02.353Z,39.43
2018-03-23T16:01:30.659Z,50.53
2018-03-23T16:03:58.936Z,57.80
2018-03-23T16:06:27.265Z,35.53
2018-03-23T16:08:56.356Z,33.97
2018-03-23T16:11:25.422Z,33.87
2018-03-23T16:13:53.697Z,43.97
2018-03-23T16:16:22.749Z,33.47
2018-03-23T16:18:51.026Z,41.40
2018-03-23T16:21:19.597Z,29.17
2018-03-23T16:23:47.864Z,53.17
2018-03-23T16:26:16.195Z,46.97
2018-03-23T16:28:44.466Z,37.10
2018-03-23T16:31:12.736Z,46.57
2018-03-23T16:33:41.835Z,24.57
2018-03-23T16:36:10.308Z,20.07
2018-03-23T16:38:38.577Z,51.30
2018-03-23T16:41:06.852Z,53.47
2018-03-23T16:43:35.143Z,44.20
2018-03-23T16:46:03.480Z,42.53
2018-03-23T16:48:31.751Z,33.87
2018-03-23T16:51:00.028Z,42.30
2018-03-23T16:53:28.370Z,31.00
2018-03-23T16:55:56.638Z,44.47
2018-03-23T16:58:24.938Z,40.10
2018-03-23T17:00:54.019Z,39.57
2018-03-23T17:03:22.323Z,37.90
2018-03-23T17:05:50.556Z,57.27
2018-03-23T17:08:18.745Z,46.87
2018-03-23T17:10:47.726Z,50.63
2018-03-23T17:13:16.718Z,44.47
2018-03-23T17:15:44.947Z,54.50
2018-03-23T17:18:13.231Z,49.33
2018-03-23T17:20:41.531Z,30.53
2018-03-23T17:23:09.944Z,20.37
2018-03-23T17:25:38.225Z,50.27
2018-03-23T17:28:07.249Z,46.43
2018-03-23T17:30:35.559Z,50.80
2018-03-23T17:33:03.818Z,54.30
2018-03-23T17:35:32.098Z,52.00
2018-03-23T17:38:00.364Z,44.07
2018-03-23T17:40:28.622Z,30.40
2018-03-23T17:42:56.939Z,32.57
2018-03-23T17:45:25.222Z,57.07
2018-03-23T17:47:53.507Z,50.53
2018-03-23T17:50:21.762Z,56.13
2018-03-23T17:52:51.074Z,44.30
2018-03-23T17:55:19.756Z,48.97
2018-03-23T17:57:47.997Z,11.83
2018-03-23T18:00:16.285Z,35.03
2018-03-23T18:02:44.598Z,44.33
2018-03-23T18:05:12.893Z,44.67
2018-03-23T18:07:41.913Z,47.23
2018-03-23T18:10:10.230Z,46.57
2018-03-23T18:12:38.513Z,55.10
2018-03-23T18:15:06.771Z,46.53
2018-03-23T18:17:35.068Z,23.50
2018-03-23T18:20:03.322Z,41.63
2018-03-23T18:22:31.576Z,43.37
2018-03-23T18:24:59.861Z,50.73
2018-03-23T18:27:29.686Z,38.97
2018-03-23T18:29:58.009Z,42.70
2018-03-23T18:32:26.270Z,45.90
2018-03-23T18:34:54.528Z,28.33
2018-03-23T18:37:22.776Z,40.17
2018-03-23T18:39:51.052Z,38.23
2018-03-23T18:42:19.335Z,52.37
2018-03-23T18:44:47.640Z,49.60
2018-03-23T18:47:15.895Z,50.73
2018-03-23T18:49:44.150Z,20.03
2018-03-23T18:52:12.415Z,41.70
2018-03-23T18:54:41.441Z,50.20
2018-03-23T18:57:09.703Z,36.30
2018-03-23T18:59:37.959Z,46.00
2018-03-23T19:02:07.001Z,46.87
2018-03-23T19:04:35.274Z,51.03
2018-03-23T19:07:03.559Z,42.30
2018-03-23T19:09:32.612Z,45.03
2018-03-23T19:12:01.744Z,45.97
2018-03-23T19:14:30.060Z,55.17
2018-03-23T19:16:58.330Z,50.43
2018-03-23T19:19:26.673Z,44.80
2018-03-23T19:21:54.930Z,46.20
2018-03-23T19:24:25.985Z,54.67
2018-03-23T19:26:54.245Z,50.77
2018-03-23T19:29:22.542Z,47.80
2018-03-23T19:31:51.542Z,55.20
2018-03-23T19:34:19.874Z,46.40
2018-03-23T19:36:48.154Z,57.90
2018-03-23T19:39:17.202Z,57.07
2018-03-23T19:41:45.449Z,51.47
2018-03-23T19:44:13.717Z,41.53
2018-03-23T19:46:41.998Z,48.90
2018-03-23T19:49:10.324Z,56.17
2018-03-23T19:51:38.568Z,52.77
2018-03-23T19:54:06.830Z,47.77
2018-03-23T19:56:35.148Z,47.17
2018-03-23T19:59:04.157Z,38.47
2018-03-23T20:01:33.205Z,54.00
2018-03-23T20:04:01.471Z,40.57
2018-03-23T20:06:29.736Z,49.10
2018-03-23T20:08:58.000Z,51.50
2018-03-23T20:11:26.265Z,54.17
2018-03-23T20:14:00.902Z,54.67
2018-03-23T20:16:29.440Z,53.37
2018-03-23T20:18:57.697Z,57.23
2018-03-23T20:21:25.966Z,59.07
2018-03-23T20:24:03.572Z,53.37
2018-03-23T20:26:31.859Z,64.40
2018-03-23T20:29:00.139Z,56.20
2018-03-23T20:31:34.059Z,53.07
2018-03-23T20:34:02.323Z,70.47
2018-03-23T20:36:30.590Z,67.23
2018-03-23T20:38:58.868Z,61.63
2018-03-23T20:41:27.137Z,36.57
2018-03-23T20:43:55.400Z,59.30
2018-03-23T20:46:23.666Z,58.13
2018-03-23T20:48:51.964Z,66.33
2018-03-23T20:51:21.347Z,70.07
2018-03-23T20:53:49.639Z,54.90
2018-03-23T20:56:17.926Z,62.53
2018-03-23T20:58:46.214Z,58.97
2018-03-23T21:01:15.997Z,36.43
2018-03-23T21:03:44.254Z,56.77
2018-03-23T21:06:12.524Z,62.20
2018-03-23T21:08:40.802Z,74.97
2018-03-23T21:11:09.065Z,39.20
2018-03-23T21:13:37.377Z,44.33
2018-03-23T21:16:05.641Z,67.13
2018-03-23T21:18:33.903Z,64.07
2018-03-23T21:21:02.163Z,53.77
2018-03-23T21:23:31.189Z,62.23
2018-03-23T21:25:59.448Z,56.70
2018-03-23T21:28:27.703Z,71.67
2018-03-23T21:30:56.733Z,57.27
2018-03-23T21:33:25.027Z,67.73
2018-03-23T21:35:54.071Z,58.60
2018-03-23T21:38:23.116Z,65.20
2018-03-23T21:40:51.392Z,58.87
2018-03-23T21:43:19.654Z,62.37
2018-03-23T21:45:47.920Z,56.67
2018-03-23T21:48:16.375Z,68.00
2018-03-23T21:50:45.484Z,58.43
2018-03-23T21:53:13.767Z,50.57
2018-03-23T21:55:42.064Z,79.07
2018-03-23T21:58:10.374Z,71.07
2018-03-23T22:00:38.630Z,71.53
2018-03-23T22:03:06.895Z,65.10
2018-03-23T22:05:35.159Z,64.77
2018-03-23T22:08:03.418Z,73.13
2018-03-23T22:10:31.718Z,67.77
2018-03-23T22:13:00.017Z,75.03
2018-03-23T22:15:28.275Z,65.03
2018-03-23T22:17:56.603Z,69.07
2018-03-23T22:20:25.639Z,72.57
2018-03-23T22:22:53.932Z,78.33
2018-03-23T22:25:22.186Z,71.40
2018-03-23T22:27:50.449Z,68.10
2018-03-23T22:30:18.714Z,78.50
2018-03-23T22:32:47.732Z,71.30
2018-03-23T22:35:15.994Z,66.87
2018-03-23T22:37:44.252Z,65.53
2018-03-23T22:40:13.296Z,74.50
2018-03-23T22:42:41.610Z,70.37
2018-03-23T22:45:09.871Z,73.40
2018-03-23T22:47:38.932Z,79.00
2018-03-23T22:50:07.219Z,70.13
2018-03-23T22:52:35.482Z,83.33
2018-03-23T22:55:03.752Z,86.53
2018-03-23T22:57:32.030Z,81.27
2018-03-23T23:00:00.303Z,78.13
2018-03-23T23:02:28.571Z,90.10
2018-03-23T23:04:56.843Z,75.47
2018-03-23T23:07:25.114Z,80.27
2018-03-23T23:09:53.414Z,89.00
2018-03-23T23:12:21.681Z,84.67
2018-03-23T23:14:49.974Z,71.90
2018-03-23T23:17:19.053Z,85.00
2018-03-23T23:19:48.178Z,83.90
2018-03-23T23:22:16.437Z,71.37
2018-03-23T23:24:44.703Z,70.03
2018-03-23T23:27:13.527Z,66.13
2018-03-23T23:29:42.559Z,80.37
2018-03-23T23:32:11.638Z,69.17
2018-03-23T23:34:40.682Z,65.37
2018-03-23T23:37:10.600Z,66.20
2018-03-23T23:39:38.861Z,80.70
2018-03-23T23:42:07.149Z,77.80
2018-03-23T23:44:36.055Z,70.77
2018-03-23T23:47:04.328Z,65.47
2018-03-23T23:49:33.718Z,60.83
2018-03-23T23:52:03.443Z,71.50
2018-03-23T23:54:34.779Z,71.07
2018-03-23T23:57:03.087Z,55.40
2018-03-23T23:59:32.082Z,59.30
